createdAt,value
2022-11-05T00:00:15.055Z,12.40
2022-11-05T00:03:00.519Z,12.90
2022-11-05T00:05:46.452Z,11.60
2022-11-05T00:08:32.119Z,11.73
2022-11-05T00:10:58.808Z,15.18
2022-11-05T00:13:43.923Z,12.55
2022-11-05T00:16:29.270Z,13.38
2022-11-05T00:19:08.180Z,11.25
2022-11-05T00:21:55.768Z,12.10
2022-11-05T00:24:42.433Z,15.65
2022-11-05T00:27:09.856Z,12.70
2022-11-05T00:29:36.747Z,12.73
2022-11-05T00:32:03.715Z,18.17
2022-11-05T00:34:30.305Z,17.23
2022-11-05T00:36:56.880Z,14.98
2022-11-05T00:39:23.488Z,14.00
2022-11-05T00:42:10.087Z,14.07
2022-11-05T00:44:55.207Z,13.45
2022-11-05T00:47:40.647Z,13.85
2022-11-05T00:50:07.698Z,14.17
2022-11-05T00:52:52.876Z,14.25
2022-11-05T00:55:19.484Z,13.48
2022-11-05T00:57:46.085Z,15.63
2022-11-05T01:00:13.739Z,13.18
2022-11-05T01:02:40.400Z,14.63
2022-11-05T01:05:07.581Z,16.48
2022-11-05T01:07:34.257Z,17.63
2022-11-05T01:10:00.828Z,19.17
2022-11-05T01:12:27.453Z,18.92
2022-11-05T01:14:54.082Z,36.30
2022-11-05T01:17:20.706Z,18.35
2022-11-05T01:19:47.271Z,16.08
2022-11-05T01:22:13.995Z,18.35
2022-11-05T01:24:40.620Z,22.90
2022-11-05T01:27:07.235Z,13.90
2022-11-05T01:29:33.860Z,12.73
2022-11-05T01:32:00.815Z,20.40
2022-11-05T01:34:27.500Z,17.98
2022-11-05T01:36:54.096Z,13.43
2022-11-05T01:39:20.688Z,16.55
2022-11-05T01:41:47.294Z,18.48
2022-11-05T01:44:50.687Z,19.40
2022-11-05T01:47:35.891Z,21.80
2022-11-05T01:50:23.266Z,19.02
2022-11-05T01:52:54.125Z,18.83
2022-11-05T01:55:26.560Z,20.40
2022-11-05T01:57:56.308Z,18.20
2022-11-05T02:00:22.911Z,17.58
2022-11-05T02:02:49.802Z,18.48
2022-11-05T02:05:16.926Z,17.40
2022-11-05T02:07:46.477Z,15.65
2022-11-05T02:10:14.865Z,17.70
2022-11-05T02:12:45.330Z,17.48
2022-11-05T02:15:24.515Z,14.90
2022-11-05T02:18:24.527Z,13.95
2022-11-05T02:21:09.848Z,14.25
2022-11-05T02:23:51.603Z,12.43
2022-11-05T02:26:49.504Z,12.77
2022-11-05T02:29:57.932Z,14.02
2022-11-05T02:32:45.668Z,13.43
2022-11-05T02:35:40.312Z,15.25
2022-11-05T02:38:13.053Z,16.17
2022-11-05T02:41:04.976Z,16.40
2022-11-05T02:43:52.252Z,15.88
2022-11-05T02:46:40.784Z,16.10
2022-11-05T02:49:47.043Z,15.02
2022-11-05T02:52:26.712Z,14.40
2022-11-05T02:55:20.004Z,17.13
2022-11-05T02:57:47.905Z,14.50
2022-11-05T03:00:52.836Z,14.52
2022-11-05T03:03:47.233Z,13.45
2022-11-05T03:06:22.700Z,12.40
2022-11-05T03:09:06.454Z,11.38
2022-11-05T03:11:45.528Z,11.60
2022-11-05T03:15:12.507Z,10.73
2022-11-05T03:18:18.364Z,11.63
2022-11-05T03:21:09.429Z,13.02
2022-11-05T03:24:08.318Z,12.13
2022-11-05T03:26:54.516Z,14.05
2022-11-05T03:29:26.289Z,12.98
2022-11-05T03:31:56.741Z,11.55
2022-11-05T03:34:31.758Z,13.75
2022-11-05T03:37:00.790Z,12.57
2022-11-05T03:39:39.682Z,11.52
2022-11-05T03:42:09.828Z,12.32
2022-11-05T03:44:39.780Z,12.27
2022-11-05T03:47:15.034Z,16.10
2022-11-05T03:49:55.682Z,14.68
2022-11-05T03:52:29.006Z,11.00
2022-11-05T03:54:56.083Z,11.52
2022-11-05T03:57:29.945Z,14.35
2022-11-05T03:59:57.019Z,10.35
2022-11-05T04:02:26.971Z,11.40
2022-11-05T04:04:54.930Z,9.45
2022-11-05T04:07:39.955Z,11.07
2022-11-05T04:10:25.468Z,11.27
2022-11-05T04:13:11.323Z,13.57
2022-11-05T04:15:56.807Z,10.20
2022-11-05T04:18:23.486Z,11.43
2022-11-05T04:21:08.679Z,10.35
2022-11-05T04:23:54.112Z,12.88
2022-11-05T04:26:23.362Z,10.70
2022-11-05T04:29:09.513Z,13.00
2022-11-05T04:31:36.661Z,10.90
2022-11-05T04:34:03.797Z,11.18
2022-11-05T04:36:30.997Z,13.55
2022-11-05T04:38:57.768Z,11.98
2022-11-05T04:41:24.421Z,15.68
2022-11-05T04:43:51.046Z,17.90
2022-11-05T04:46:17.874Z,12.02
2022-11-05T04:48:44.765Z,16.35
2022-11-05T04:51:11.521Z,13.50
2022-11-05T04:53:38.160Z,14.35
2022-11-05T04:56:15.565Z,13.88
2022-11-05T04:58:42.811Z,13.65
2022-11-05T05:01:16.525Z,14.90
2022-11-05T05:03:43.627Z,12.43
2022-11-05T05:06:10.798Z,12.23
2022-11-05T05:08:37.498Z,16.42
2022-11-05T05:11:08.576Z,16.08
2022-11-05T05:13:35.298Z,17.10
2022-11-05T05:16:23.786Z,25.10
2022-11-05T05:18:51.434Z,17.25
2022-11-05T05:21:38.907Z,13.90
2022-11-05T05:24:09.720Z,18.60
2022-11-05T05:26:39.256Z,16.13
2022-11-05T05:29:06.792Z,16.83
2022-11-05T05:31:34.460Z,28.58
2022-11-05T05:34:01.592Z,22.48
2022-11-05T05:36:28.297Z,17.40
2022-11-05T05:38:54.958Z,31.30
2022-11-05T05:41:21.790Z,17.17
2022-11-05T05:43:48.579Z,31.38
2022-11-05T05:46:17.488Z,26.73
2022-11-05T05:48:49.690Z,26.75
2022-11-05T05:51:16.883Z,25.15
2022-11-05T05:53:43.752Z,16.35
2022-11-05T05:56:11.104Z,29.02
2022-11-05T05:58:39.196Z,16.23
2022-11-05T06:01:15.588Z,17.80
2022-11-05T06:03:45.299Z,18.52
2022-11-05T06:06:13.717Z,22.95
2022-11-05T06:08:42.233Z,16.50
2022-11-05T06:11:09.264Z,17.80
2022-11-05T06:13:37.199Z,15.50
2022-11-05T06:16:09.233Z,15.95
2022-11-05T06:18:37.146Z,14.48
2022-11-05T06:21:11.465Z,17.48
2022-11-05T06:23:41.375Z,17.60
2022-11-05T06:26:11.660Z,16.92
2022-11-05T06:28:38.775Z,18.80
2022-11-05T06:31:06.070Z,16.40
2022-11-05T06:33:32.854Z,16.95
2022-11-05T06:36:01.881Z,17.60
2022-11-05T06:38:31.547Z,14.60
2022-11-05T06:40:59.454Z,16.52
2022-11-05T06:43:27.603Z,20.00
2022-11-05T06:45:55.900Z,28.48
2022-11-05T06:48:22.915Z,22.23
2022-11-05T06:50:49.566Z,28.17
2022-11-05T06:53:16.546Z,17.77
2022-11-05T06:55:44.840Z,37.92
2022-11-05T06:58:11.532Z,33.88
2022-11-05T07:00:38.354Z,26.55
2022-11-05T07:03:11.452Z,36.45
2022-11-05T07:05:43.523Z,19.77
2022-11-05T07:08:10.571Z,19.95
2022-11-05T07:10:37.252Z,21.15
2022-11-05T07:13:08.007Z,18.42
2022-11-05T07:15:36.658Z,18.30
2022-11-05T07:18:05.209Z,19.92
2022-11-05T07:20:34.148Z,22.15
2022-11-05T07:23:08.314Z,19.23
2022-11-05T07:25:35.431Z,19.48
2022-11-05T07:28:03.732Z,18.25
2022-11-05T07:30:31.814Z,16.20
2022-11-05T07:32:58.585Z,17.05
2022-11-05T07:35:25.957Z,18.13
2022-11-05T07:37:54.506Z,20.17
2022-11-05T07:40:23.808Z,18.65
2022-11-05T07:42:59.313Z,15.25
2022-11-05T07:45:28.492Z,16.88
2022-11-05T07:48:01.624Z,18.67
2022-11-05T07:50:32.249Z,17.67
2022-11-05T07:53:14.348Z,20.63
2022-11-05T07:55:42.256Z,19.25
2022-11-05T07:58:10.679Z,19.67
2022-11-05T08:00:37.947Z,19.25
2022-11-05T08:03:17.131Z,20.98
2022-11-05T08:05:47.328Z,18.55
2022-11-05T08:08:18.114Z,18.38
2022-11-05T08:10:45.242Z,16.52
2022-11-05T08:13:13.766Z,16.15
2022-11-05T08:15:42.228Z,14.68
2022-11-05T08:18:15.395Z,12.35
2022-11-05T08:20:45.086Z,14.48
2022-11-05T08:23:12.382Z,11.32
2022-11-05T08:25:39.857Z,11.43
2022-11-05T08:28:12.940Z,11.77
2022-11-05T08:30:40.397Z,10.43
2022-11-05T08:33:13.144Z,12.73
2022-11-05T08:35:40.622Z,11.23
2022-11-05T08:38:10.373Z,11.95
2022-11-05T08:40:37.168Z,10.77
2022-11-05T08:43:06.833Z,11.55
2022-11-05T08:45:38.325Z,10.65
2022-11-05T08:48:11.385Z,11.18
2022-11-05T08:50:38.782Z,11.38
2022-11-05T08:53:07.404Z,11.02
2022-11-05T08:55:34.325Z,11.57
2022-11-05T08:58:06.439Z,11.43
2022-11-05T09:00:36.520Z,11.00
2022-11-05T09:03:06.419Z,10.00
2022-11-05T09:05:38.729Z,11.23
2022-11-05T09:08:12.052Z,11.10
2022-11-05T09:10:39.932Z,9.82
2022-11-05T09:13:08.122Z,10.10
2022-11-05T09:15:37.805Z,8.95
2022-11-05T09:18:08.093Z,9.15
2022-11-05T09:20:36.819Z,9.50
2022-11-05T09:23:03.465Z,9.13
2022-11-05T09:25:30.088Z,7.72
2022-11-05T09:28:16.520Z,8.27
2022-11-05T09:30:47.268Z,8.25
2022-11-05T09:33:14.763Z,7.32
2022-11-05T09:35:42.436Z,7.88
2022-11-05T09:38:09.269Z,7.90
2022-11-05T09:40:47.469Z,7.32
2022-11-05T09:43:26.046Z,7.70
2022-11-05T09:46:00.258Z,6.53
2022-11-05T09:48:30.784Z,6.00
2022-11-05T09:50:58.238Z,5.93
2022-11-05T09:53:25.512Z,5.30
2022-11-05T09:56:00.211Z,5.60
2022-11-05T09:58:54.702Z,6.67
2022-11-05T10:01:29.380Z,5.78
2022-11-05T10:04:00.755Z,6.38
2022-11-05T10:06:28.307Z,6.30
2022-11-05T10:09:11.851Z,5.25
2022-11-05T10:11:46.890Z,5.38
2022-11-05T10:14:40.833Z,5.47
2022-11-05T10:17:24.344Z,4.20
2022-11-05T10:20:16.433Z,5.65
2022-11-05T10:22:48.290Z,4.00
2022-11-05T10:25:21.696Z,3.92
2022-11-05T10:27:54.493Z,4.45
2022-11-05T10:30:21.985Z,4.00
2022-11-05T10:32:52.177Z,4.07
2022-11-05T10:35:23.790Z,4.03
2022-11-05T10:37:53.335Z,3.53
2022-11-05T10:40:43.343Z,3.30
2022-11-05T10:43:18.500Z,3.70
2022-11-05T10:46:36.111Z,4.03
2022-11-05T10:49:24.814Z,4.50
2022-11-05T10:51:58.839Z,4.15
2022-11-05T10:54:34.121Z,3.47
2022-11-05T10:57:01.113Z,3.70
2022-11-05T10:59:30.105Z,4.80
2022-11-05T11:02:15.338Z,4.13
2022-11-05T11:04:42.199Z,3.08
2022-11-05T11:07:23.520Z,3.45
2022-11-05T11:09:51.494Z,3.42
2022-11-05T11:12:28.859Z,2.67
2022-11-05T11:15:02.598Z,3.35
2022-11-05T11:17:32.509Z,2.97
2022-11-05T11:20:19.972Z,3.20
2022-11-05T11:23:13.103Z,3.55
2022-11-05T11:25:52.964Z,2.95
2022-11-05T11:28:32.889Z,2.92
2022-11-05T11:31:33.192Z,2.70
2022-11-05T11:34:17.067Z,2.67
2022-11-05T11:36:51.247Z,2.35
2022-11-05T11:39:24.924Z,2.65
2022-11-05T11:42:09.874Z,2.53
2022-11-05T11:44:46.860Z,3.55
2022-11-05T11:47:18.733Z,3.13
2022-11-05T11:49:52.454Z,3.10
2022-11-05T11:52:34.590Z,3.05
2022-11-05T11:55:19.799Z,3.05
2022-11-05T11:58:06.162Z,3.65
2022-11-05T12:00:43.996Z,3.25
2022-11-05T12:03:40.034Z,2.70
2022-11-05T12:06:27.922Z,3.13
2022-11-05T12:09:09.578Z,3.55
2022-11-05T12:12:02.159Z,3.33
2022-11-05T12:14:34.927Z,3.67
2022-11-05T12:17:30.546Z,3.22
2022-11-05T12:20:11.653Z,3.40
2022-11-05T12:22:59.536Z,3.60
2022-11-05T12:25:50.073Z,3.17
2022-11-05T12:29:12.070Z,3.58
2022-11-05T12:31:53.505Z,2.85
2022-11-05T12:34:33.161Z,3.30
2022-11-05T12:37:34.439Z,3.80
2022-11-05T12:40:10.848Z,3.45
2022-11-05T12:42:56.223Z,3.97
2022-11-05T12:45:34.587Z,2.65
2022-11-05T12:48:29.303Z,3.10
2022-11-05T12:51:14.894Z,3.97
2022-11-05T12:53:55.431Z,3.17
2022-11-05T12:56:32.382Z,3.10
2022-11-05T12:59:28.467Z,3.00
2022-11-05T13:02:26.906Z,3.72
2022-11-05T13:04:59.139Z,2.67
2022-11-05T13:07:34.285Z,3.38
2022-11-05T13:10:34.194Z,3.28
2022-11-05T13:13:12.824Z,2.92
2022-11-05T13:15:49.479Z,3.03
2022-11-05T13:18:23.871Z,3.13
2022-11-05T13:20:53.648Z,2.95
2022-11-05T13:23:35.384Z,3.13
2022-11-05T13:26:19.828Z,3.25
2022-11-05T13:29:07.007Z,2.97
2022-11-05T13:31:46.140Z,2.92
2022-11-05T13:34:13.558Z,2.85
2022-11-05T13:36:58.756Z,3.08
2022-11-05T13:39:36.169Z,2.87
2022-11-05T13:42:43.220Z,2.58
2022-11-05T13:47:52.688Z,2.63
2022-11-05T13:51:09.702Z,3.67
2022-11-05T13:53:57.001Z,3.13
2022-11-05T13:56:45.345Z,2.88
2022-11-05T13:59:53.616Z,3.20
2022-11-05T14:02:37.463Z,3.10
2022-11-05T14:05:06.108Z,2.80
2022-11-05T14:07:38.471Z,3.47
2022-11-05T14:10:28.237Z,2.70
2022-11-05T14:12:58.743Z,2.70
2022-11-05T14:15:30.903Z,2.67
2022-11-05T14:18:34.018Z,2.30
2022-11-05T14:21:05.631Z,2.50
2022-11-05T14:23:39.893Z,2.15
2022-11-05T14:26:23.855Z,2.88
2022-11-05T14:29:20.252Z,2.25
2022-11-05T14:32:07.953Z,2.55
2022-11-05T14:35:37.662Z,2.35
2022-11-05T14:38:17.958Z,2.65
2022-11-05T14:40:46.015Z,2.00
2022-11-05T14:43:25.813Z,1.42
2022-11-05T14:46:02.353Z,2.17
2022-11-05T14:49:12.804Z,1.95
2022-11-05T14:51:46.165Z,1.55
2022-11-05T14:54:36.905Z,1.70
2022-11-05T14:57:04.246Z,1.98
2022-11-05T14:59:34.710Z,2.28
2022-11-05T15:02:16.457Z,1.85
2022-11-05T15:04:45.605Z,1.90
2022-11-05T15:07:33.547Z,1.52
2022-11-05T15:10:19.497Z,1.50
2022-11-05T15:12:56.433Z,1.90
2022-11-05T15:15:31.415Z,1.67
2022-11-05T15:18:03.643Z,1.33
2022-11-05T15:20:40.187Z,1.25
2022-11-05T15:23:15.847Z,1.35
2022-11-05T15:26:03.454Z,1.92
2022-11-05T15:28:50.104Z,1.52
2022-11-05T15:31:16.677Z,1.80
2022-11-05T15:33:49.383Z,1.80
2022-11-05T15:36:32.051Z,1.70
2022-11-05T15:41:47.570Z,1.50
2022-11-05T15:44:40.369Z,1.80
2022-11-05T15:47:15.212Z,1.67
2022-11-05T15:49:46.120Z,2.08
2022-11-05T15:52:16.953Z,2.20
2022-11-05T15:54:44.384Z,2.50
2022-11-05T15:57:40.321Z,2.05
2022-11-05T16:00:20.487Z,2.53
2022-11-05T16:03:04.727Z,2.20
2022-11-05T16:05:44.332Z,2.13
2022-11-05T16:08:26.604Z,2.78
2022-11-05T16:11:01.182Z,2.22
2022-11-05T16:13:41.924Z,2.65
2022-11-05T16:16:14.901Z,2.97
2022-11-05T16:18:44.406Z,2.80
2022-11-05T16:21:18.472Z,3.00
2022-11-05T16:23:54.942Z,2.92
2022-11-05T16:29:47.407Z,3.35
2022-11-05T16:32:26.827Z,2.67
2022-11-05T16:35:04.179Z,2.40
2022-11-05T16:37:41.287Z,3.05
2022-11-05T16:40:19.874Z,3.45
2022-11-05T16:42:48.435Z,2.72
2022-11-05T16:45:18.805Z,2.75
2022-11-05T16:47:46.681Z,2.88
2022-11-05T16:50:29.789Z,2.80
2022-11-05T16:52:56.847Z,2.67
2022-11-05T16:55:23.660Z,3.13
2022-11-05T16:57:54.337Z,2.67
2022-11-05T17:00:22.706Z,3.05
2022-11-05T17:02:49.868Z,2.92
2022-11-05T17:05:27.765Z,2.97
2022-11-05T17:07:55.728Z,3.28
2022-11-05T17:10:25.044Z,2.70
2022-11-05T17:12:52.047Z,3.15
2022-11-05T17:15:31.618Z,3.47
2022-11-05T17:17:59.319Z,3.72
2022-11-05T17:20:36.723Z,2.85
2022-11-05T17:23:07.209Z,3.55
2022-11-05T17:25:34.360Z,3.35
2022-11-05T17:28:01.622Z,3.20
2022-11-05T17:30:28.402Z,2.95
2022-11-05T17:32:55.363Z,3.85
2022-11-05T17:35:23.050Z,3.58
2022-11-05T17:37:50.224Z,2.85
2022-11-05T17:40:22.292Z,3.63
2022-11-05T17:42:50.398Z,2.90
2022-11-05T17:45:18.183Z,2.80
2022-11-05T17:47:44.891Z,3.25
2022-11-05T17:50:15.970Z,3.25
2022-11-05T17:52:43.324Z,3.13
2022-11-05T17:55:16.743Z,2.78
2022-11-05T17:57:48.885Z,3.08
2022-11-05T18:00:22.185Z,3.63
2022-11-05T18:02:52.303Z,3.10
2022-11-05T18:05:21.611Z,3.17
2022-11-05T18:07:49.443Z,3.22
2022-11-05T18:10:16.469Z,3.20
2022-11-05T18:12:44.156Z,3.08
2022-11-05T18:15:11.491Z,3.15
2022-11-05T18:17:38.924Z,3.63
2022-11-05T18:20:11.613Z,2.97
2022-11-05T18:22:41.620Z,3.15
2022-11-05T18:25:10.178Z,2.80
2022-11-05T18:27:37.782Z,3.40
2022-11-05T18:30:05.534Z,2.80
2022-11-05T18:32:33.024Z,2.70
2022-11-05T18:35:00.768Z,3.25
2022-11-05T18:37:27.799Z,2.78
2022-11-05T18:39:54.728Z,3.50
2022-11-05T18:42:22.118Z,3.20
2022-11-05T18:44:49.285Z,3.72
2022-11-05T18:47:16.146Z,2.50
2022-11-05T18:49:42.778Z,3.47
2022-11-05T18:52:09.550Z,3.30
2022-11-05T18:54:36.288Z,2.97
2022-11-05T18:57:03.127Z,3.15
2022-11-05T18:59:39.473Z,3.05
2022-11-05T19:02:08.718Z,3.10
2022-11-05T19:04:39.479Z,3.88
2022-11-05T19:07:09.091Z,3.42
2022-11-05T19:09:38.447Z,3.50
2022-11-05T19:12:08.169Z,4.18
2022-11-05T19:14:38.324Z,3.15
2022-11-05T19:17:04.960Z,3.65
2022-11-05T19:19:31.553Z,3.25
2022-11-05T19:21:58.245Z,3.30
2022-11-05T19:24:24.986Z,3.10
2022-11-05T19:26:51.753Z,3.88
2022-11-05T19:29:18.673Z,3.22
2022-11-05T19:31:45.792Z,3.75
2022-11-05T19:34:14.565Z,4.30
2022-11-05T19:36:42.382Z,3.60
2022-11-05T19:39:13.154Z,3.17
2022-11-05T19:41:40.372Z,3.60
2022-11-05T19:44:07.221Z,3.70
2022-11-05T19:46:34.328Z,4.10
2022-11-05T19:49:01.550Z,4.32
2022-11-05T19:51:31.168Z,4.25
2022-11-05T19:54:00.686Z,3.88
2022-11-05T19:56:34.371Z,3.85
2022-11-05T19:59:03.320Z,4.00
2022-11-05T20:01:31.045Z,4.60
2022-11-05T20:03:59.578Z,5.00
2022-11-05T20:06:31.931Z,4.43
2022-11-05T20:11:49.294Z,4.47
2022-11-05T20:14:16.086Z,4.68
2022-11-05T20:16:44.892Z,4.63
2022-11-05T20:19:17.838Z,4.75
2022-11-05T20:21:44.912Z,5.13
2022-11-05T20:24:18.631Z,5.07
2022-11-05T20:26:48.858Z,5.20
2022-11-05T20:29:15.496Z,5.25
2022-11-05T20:31:42.117Z,5.03
2022-11-05T20:34:08.915Z,6.03
2022-11-05T20:36:35.492Z,4.72
2022-11-05T20:39:05.631Z,7.03
2022-11-05T20:41:33.180Z,5.30
2022-11-05T20:44:00.031Z,5.38
2022-11-05T20:46:26.644Z,5.05
2022-11-05T20:48:54.348Z,5.57
2022-11-05T20:51:24.205Z,5.03
2022-11-05T20:53:56.340Z,5.25
2022-11-05T20:56:32.610Z,5.43
2022-11-05T20:59:00.500Z,4.93
2022-11-05T21:01:30.884Z,5.47
2022-11-05T21:03:57.904Z,5.07
2022-11-05T21:06:26.130Z,5.38
2022-11-05T21:08:53.781Z,5.65
2022-11-05T21:11:20.758Z,5.63
2022-11-05T21:13:47.893Z,5.57
2022-11-05T21:16:18.484Z,5.85
2022-11-05T21:18:46.666Z,5.57
2022-11-05T21:21:20.150Z,5.85
2022-11-05T21:23:47.251Z,6.00
2022-11-05T21:26:15.054Z,6.45
2022-11-05T21:28:42.405Z,5.90
2022-11-05T21:31:09.830Z,5.15
2022-11-05T21:33:36.811Z,6.15
2022-11-05T21:36:10.713Z,5.45
2022-11-05T21:38:37.839Z,5.70
2022-11-05T21:41:05.592Z,5.90
2022-11-05T21:43:32.376Z,5.55
2022-11-05T21:46:04.099Z,5.95
2022-11-05T21:48:32.183Z,6.72
2022-11-05T21:51:17.334Z,5.88
2022-11-05T21:54:02.777Z,5.18
2022-11-05T21:56:48.296Z,4.80
2022-11-05T21:59:37.866Z,5.47
2022-11-05T22:02:05.634Z,5.15
2022-11-05T22:04:38.480Z,5.70
2022-11-05T22:07:06.964Z,5.53
2022-11-05T22:09:34.095Z,5.65
2022-11-05T22:12:01.491Z,5.65
2022-11-05T22:14:28.776Z,5.68
2022-11-05T22:16:56.332Z,5.50
2022-11-05T22:19:23.845Z,5.57
2022-11-05T22:21:50.739Z,5.30
2022-11-05T22:24:18.501Z,5.32
2022-11-05T22:26:46.027Z,5.78
2022-11-05T22:29:13.406Z,6.88
2022-11-05T22:31:40.208Z,5.68
2022-11-05T22:34:08.077Z,5.35
2022-11-05T22:36:35.519Z,6.22
2022-11-05T22:39:02.887Z,5.70
2022-11-05T22:41:30.464Z,5.38
2022-11-05T22:43:57.856Z,5.28
2022-11-05T22:46:27.372Z,5.38
2022-11-05T22:48:55.912Z,4.68
2022-11-05T22:51:29.392Z,5.40
2022-11-05T22:53:56.360Z,4.90
2022-11-05T22:56:26.652Z,4.82
2022-11-05T22:58:53.827Z,5.40
2022-11-05T23:01:22.248Z,4.45
2022-11-05T23:03:51.605Z,4.85
2022-11-05T23:06:44.323Z,4.22
2022-11-05T23:09:44.052Z,5.32
2022-11-05T23:12:26.042Z,3.97
2022-11-05T23:14:54.895Z,4.07
2022-11-05T23:17:40.293Z,5.35
2022-11-05T23:20:32.199Z,4.80
2022-11-05T23:23:17.593Z,4.35
2022-11-05T23:25:44.451Z,3.93
2022-11-05T23:28:12.218Z,4.53
2022-11-05T23:31:19.310Z,4.10
2022-11-05T23:33:45.895Z,4.50
2022-11-05T23:36:31.698Z,4.50
2022-11-05T23:38:58.305Z,4.85
2022-11-05T23:41:57.098Z,4.40
2022-11-05T23:44:42.546Z,4.55
2022-11-05T23:47:28.023Z,5.47
2022-11-05T23:49:54.655Z,6.07
2022-11-05T23:52:21.251Z,5.30
2022-11-05T23:54:47.878Z,5.60
2022-11-05T23:57:14.509Z,6.05
2022-11-05T23:59:41.122Z,7.38
